createdAt,value
2023-04-02T00:00:07.595Z,99393.88
2023-04-02T00:05:10.141Z,99399.13
2023-04-02T00:10:11.551Z,99408.53
2023-04-02T00:15:12.754Z,99411.63
2023-04-02T00:20:14.212Z,99422.09
2023-04-02T00:25:15.472Z,99440.53
2023-04-02T00:30:17.155Z,99444.59
2023-04-02T00:35:18.323Z,99452.06
2023-04-02T00:40:19.562Z,99467.38
2023-04-02T00:45:21.625Z,99472.69
2023-04-02T00:50:22.839Z,99480.09
2023-04-02T00:55:24.348Z,99491.22
2023-04-02T01:00:25.510Z,99491.22
2023-04-02T01:05:26.781Z,99494.69
2023-04-02T01:10:28.426Z,99509.91
2023-04-02T01:15:30.571Z,99516.56
2023-04-02T01:20:31.831Z,99524.22
2023-04-02T01:25:33.262Z,99531.56
2023-04-02T01:30:34.684Z,99534.84
2023-04-02T01:35:36.028Z,99546.47
2023-04-02T01:40:37.554Z,99556.19
2023-04-02T01:45:38.775Z,99564.19
2023-04-02T01:50:40.051Z,99576.09
2023-04-02T01:55:41.271Z,99582.16
2023-04-02T02:00:42.570Z,99591.63
2023-04-02T02:05:43.703Z,99601.84
2023-04-02T02:10:44.885Z,99602.41
2023-04-02T02:15:46.490Z,99617.63
2023-04-02T02:20:47.760Z,99634.00
2023-04-02T02:25:48.929Z,99639.34
2023-04-02T02:30:50.220Z,99642.31
2023-04-02T02:35:51.598Z,99660.91
2023-04-02T02:40:52.855Z,99664.16
2023-04-02T02:45:54.092Z,99682.75
2023-04-02T02:50:55.645Z,99693.19
2023-04-02T02:55:56.853Z,99698.94
2023-04-02T03:00:58.096Z,99700.81
2023-04-02T03:05:59.235Z,99719.66
2023-04-02T03:11:01.060Z,99722.34
2023-04-02T03:16:02.345Z,99731.22
2023-04-02T03:21:03.671Z,99739.84
2023-04-02T03:26:05.001Z,99762.56
2023-04-02T03:31:06.342Z,99760.78
2023-04-02T03:36:07.882Z,99776.97
2023-04-02T03:41:09.125Z,99787.06
2023-04-02T03:46:10.507Z,99796.50
2023-04-02T03:51:11.739Z,99804.91
2023-04-02T03:56:12.895Z,99819.56
2023-04-02T04:01:14.075Z,99824.31
2023-04-02T04:06:15.344Z,99843.34
2023-04-02T04:11:16.648Z,99843.88
2023-04-02T04:16:17.929Z,99860.81
2023-04-02T04:21:30.753Z,99870.78
2023-04-02T04:26:34.829Z,99879.63
2023-04-02T04:31:38.940Z,99895.81
2023-04-02T04:36:41.495Z,99910.41
2023-04-02T04:41:42.712Z,99913.28
2023-04-02T04:46:43.855Z,99934.41
2023-04-02T04:51:45.113Z,99940.13
2023-04-02T04:56:46.305Z,99960.72
2023-04-02T05:01:47.549Z,99975.59
2023-04-02T05:06:48.769Z,99977.94
2023-04-02T05:11:49.928Z,99993.84
2023-04-02T05:16:51.142Z,100000.63
2023-04-02T05:21:52.345Z,100011.81
2023-04-02T05:26:53.570Z,100022.50
2023-04-02T05:31:54.903Z,100034.50
2023-04-02T05:36:56.051Z,100042.56
2023-04-02T05:41:57.286Z,100065.50
2023-04-02T05:46:58.628Z,100065.22
2023-04-02T05:51:59.921Z,100074.63
2023-04-02T05:57:01.088Z,100090.50
2023-04-02T06:02:03.798Z,100106.13
2023-04-02T06:07:05.123Z,100119.16
2023-04-02T06:12:06.308Z,100117.84
2023-04-02T06:17:07.564Z,100144.72
2023-04-02T06:22:08.739Z,100160.84
2023-04-02T06:27:09.897Z,100153.56
2023-04-02T06:32:11.720Z,100181.44
2023-04-02T06:37:12.885Z,100191.28
2023-04-02T06:42:14.174Z,100210.50
2023-04-02T06:47:17.289Z,100213.09
2023-04-02T06:52:18.497Z,100229.75
2023-04-02T06:57:19.701Z,100244.81
2023-04-02T07:02:20.902Z,100254.44
2023-04-02T07:07:22.058Z,100268.75
2023-04-02T07:12:23.795Z,100276.56
2023-04-02T07:17:25.044Z,100291.69
2023-04-02T07:22:26.799Z,100305.47
2023-04-02T07:27:28.051Z,100315.66
2023-04-02T07:32:29.351Z,100327.59
2023-04-02T07:37:30.795Z,100340.88
2023-04-02T07:42:32.040Z,100354.75
2023-04-02T07:47:33.238Z,100358.41
2023-04-02T07:52:34.695Z,100364.53
2023-04-02T07:57:35.866Z,100379.16
2023-04-02T08:02:37.202Z,100384.88
2023-04-02T08:07:39.143Z,100395.81
2023-04-02T08:12:40.690Z,100401.84
2023-04-02T08:17:43.008Z,100419.34
2023-04-02T08:22:44.241Z,100433.13
2023-04-02T08:27:45.462Z,100444.59
2023-04-02T08:32:46.653Z,100461.81
2023-04-02T08:37:47.950Z,100468.81
2023-04-02T08:42:49.446Z,100485.94
2023-04-02T08:47:51.200Z,100496.75
2023-04-02T08:52:52.540Z,100506.44
2023-04-02T08:57:53.739Z,100518.38
2023-04-02T09:02:55.010Z,100530.88
2023-04-02T09:07:56.332Z,100535.63
2023-04-02T09:12:58.628Z,100543.34
2023-04-02T09:17:59.921Z,100561.19
2023-04-02T09:23:01.248Z,100555.97
2023-04-02T09:28:02.662Z,100566.34
2023-04-02T09:33:07.337Z,100572.66
2023-04-02T09:38:08.892Z,100587.44
2023-04-02T09:43:10.048Z,100607.47
2023-04-02T09:48:11.265Z,100614.44
2023-04-02T09:53:12.422Z,100626.66
2023-04-02T09:58:13.690Z,100635.91
2023-04-02T10:03:14.878Z,100647.00
2023-04-02T10:08:17.160Z,100664.25
2023-04-02T10:13:18.697Z,100675.16
2023-04-02T10:18:19.922Z,100681.97
2023-04-02T10:23:21.614Z,100684.56
2023-04-02T10:28:22.830Z,100693.25
2023-04-02T10:33:24.034Z,100702.78
2023-04-02T10:38:25.242Z,100716.19
2023-04-02T10:43:26.444Z,100726.22
2023-04-02T10:48:27.677Z,100726.50
2023-04-02T10:53:28.810Z,100731.50
2023-04-02T10:58:29.973Z,100741.00
2023-04-02T11:03:31.557Z,100747.78
2023-04-02T11:08:32.915Z,100773.25
2023-04-02T11:13:34.364Z,100780.28
2023-04-02T11:18:38.752Z,100780.28
2023-04-02T11:23:40.176Z,100790.06
2023-04-02T11:28:41.573Z,100793.31
2023-04-02T11:33:46.177Z,100814.53
2023-04-02T11:38:49.100Z,100812.28
2023-04-02T11:43:50.981Z,100822.97
2023-04-02T11:48:54.656Z,100819.56
2023-04-02T11:53:58.343Z,100830.53
2023-04-02T11:58:59.552Z,100831.28
2023-04-02T12:04:00.908Z,100824.81
2023-04-02T12:09:04.743Z,100838.09
2023-04-02T12:14:05.900Z,100837.69
2023-04-02T12:19:07.090Z,100852.66
2023-04-02T12:24:08.347Z,100864.06
2023-04-02T12:29:09.658Z,100874.03
2023-04-02T12:34:10.949Z,100871.81
2023-04-02T12:39:12.165Z,100870.66
2023-04-02T12:44:15.435Z,100891.38
2023-04-02T12:49:16.652Z,100898.34
2023-04-02T12:54:18.024Z,100897.94
2023-04-02T12:59:19.184Z,100894.25
2023-04-02T13:04:22.096Z,100907.50
2023-04-02T13:09:23.305Z,100900.19
2023-04-02T13:14:24.536Z,100907.56
2023-04-02T13:19:25.756Z,100913.16
2023-04-02T13:24:27.013Z,100917.44
2023-04-02T13:29:28.363Z,100915.69
2023-04-02T13:34:29.561Z,100924.03
2023-04-02T13:39:30.860Z,100922.13
2023-04-02T13:44:32.107Z,100937.16
2023-04-02T13:49:33.362Z,100932.50
2023-04-02T13:54:35.073Z,100943.44
2023-04-02T13:59:36.421Z,100955.72
2023-04-02T14:04:37.901Z,100967.31
2023-04-02T14:09:39.083Z,100964.41
2023-04-02T14:14:40.444Z,100968.50
2023-04-02T14:19:41.686Z,100982.94
2023-04-02T14:24:42.902Z,100987.63
2023-04-02T14:29:44.174Z,100985.56
2023-04-02T14:34:45.575Z,101012.00
2023-04-02T14:39:46.768Z,101022.47
2023-04-02T14:44:48.775Z,101037.66
2023-04-02T14:49:50.038Z,101044.72
2023-04-02T14:54:52.158Z,101050.78
2023-04-02T14:59:53.342Z,101058.59
2023-04-02T15:04:54.713Z,101064.72
2023-04-02T15:09:56.359Z,101078.78
2023-04-02T15:14:57.711Z,101070.53
2023-04-02T15:19:58.975Z,101074.59
2023-04-02T15:25:00.307Z,101079.78
2023-04-02T15:30:01.873Z,101092.94
2023-04-02T15:35:03.639Z,101088.16
2023-04-02T15:40:04.888Z,101088.22
2023-04-02T15:45:06.048Z,101096.22
2023-04-02T15:50:07.264Z,101108.16
2023-04-02T15:55:09.604Z,101124.03
2023-04-02T16:00:11.215Z,101124.59
2023-04-02T16:05:12.359Z,101133.84
2023-04-02T16:10:14.144Z,101138.44
2023-04-02T16:15:15.605Z,101146.94
2023-04-02T16:20:16.840Z,101146.16
2023-04-02T16:25:19.396Z,101143.09
2023-04-02T16:30:20.701Z,101155.28
2023-04-02T16:35:41.792Z,101155.72
2023-04-02T16:40:43.113Z,101166.72
2023-04-02T16:45:44.443Z,101164.34
2023-04-02T16:50:45.919Z,101179.81
2023-04-02T16:55:47.164Z,101186.63
2023-04-02T17:00:48.508Z,101186.16
2023-04-02T17:05:49.708Z,101201.25
2023-04-02T17:10:51.075Z,101205.41
2023-04-02T17:15:52.349Z,101212.72
2023-04-02T17:20:53.620Z,101213.66
2023-04-02T17:25:54.843Z,101215.38
2023-04-02T17:30:56.037Z,101222.59
2023-04-02T17:35:57.348Z,101228.22
2023-04-02T17:40:58.568Z,101239.91
2023-04-02T17:45:59.786Z,101254.16
2023-04-02T17:51:01.082Z,101263.47
2023-04-02T17:56:02.280Z,101268.38
2023-04-02T18:01:03.613Z,101272.38
2023-04-02T18:06:06.526Z,101279.00
2023-04-02T18:11:08.637Z,101285.94
2023-04-02T18:16:09.842Z,101290.66
2023-04-02T18:21:11.072Z,101302.69
2023-04-02T18:26:12.248Z,101310.66
2023-04-02T18:31:13.869Z,101319.97
2023-04-02T18:36:15.089Z,101331.63
2023-04-02T18:41:16.845Z,101322.16
2023-04-02T18:46:18.231Z,101334.75
2023-04-02T18:51:19.773Z,101337.16
2023-04-02T18:56:22.290Z,101345.13
2023-04-02T19:01:23.625Z,101358.50
2023-04-02T19:06:24.848Z,101364.94
2023-04-02T19:11:29.649Z,101373.44
2023-04-02T19:16:31.153Z,101389.06
2023-04-02T19:21:32.528Z,101391.00
2023-04-02T19:26:33.770Z,101392.38
2023-04-02T19:31:35.080Z,101399.34
2023-04-02T19:36:36.437Z,101408.19
2023-04-02T19:41:37.669Z,101414.47
2023-04-02T19:46:38.904Z,101423.72
2023-04-02T19:51:40.160Z,101424.50
2023-04-02T19:56:42.433Z,101429.25
2023-04-02T20:01:43.623Z,101436.81
2023-04-02T20:06:44.832Z,101445.13
2023-04-02T20:11:46.606Z,101443.03
2023-04-02T20:16:48.020Z,101449.34
2023-04-02T20:21:49.200Z,101452.09
2023-04-02T20:26:50.342Z,101451.41
2023-04-02T20:31:51.791Z,101463.50
2023-04-02T20:36:53.535Z,101462.25
2023-04-02T20:41:55.596Z,101467.56
2023-04-02T20:46:56.862Z,101479.44
2023-04-02T20:51:58.060Z,101482.53
2023-04-02T20:56:59.308Z,101495.53
2023-04-02T21:02:00.499Z,101487.97
2023-04-02T21:07:01.720Z,101490.84
2023-04-02T21:12:02.965Z,101499.91
2023-04-02T21:17:04.314Z,101504.91
2023-04-02T21:22:05.671Z,101503.66
2023-04-02T21:27:06.945Z,101502.91
2023-04-02T21:32:20.383Z,101510.16
2023-04-02T21:37:22.300Z,101512.81
2023-04-02T21:42:24.072Z,101503.72
2023-04-02T21:47:25.388Z,101522.81
2023-04-02T21:52:26.549Z,101516.59
2023-04-02T21:57:27.801Z,101511.44
2023-04-02T22:02:29.088Z,101523.22
2023-04-02T22:07:31.151Z,101528.25
2023-04-02T22:12:32.291Z,101528.28
2023-04-02T22:17:33.508Z,101535.09
2023-04-02T22:22:34.708Z,101529.06
2023-04-02T22:27:35.907Z,101537.69
2023-04-02T22:32:37.089Z,101541.47
2023-04-02T22:37:38.335Z,101543.09
2023-04-02T22:42:39.565Z,101547.06
2023-04-02T22:47:40.972Z,101557.22
2023-04-02T22:52:42.197Z,101557.88
2023-04-02T22:57:43.402Z,101564.28
2023-04-02T23:02:44.741Z,101571.47
2023-04-02T23:07:45.945Z,101581.84
2023-04-02T23:12:47.129Z,101582.81
2023-04-02T23:17:48.379Z,101577.25
2023-04-02T23:22:49.527Z,101576.06
2023-04-02T23:27:50.728Z,101576.66
2023-04-02T23:32:52.003Z,101580.06
2023-04-02T23:37:53.208Z,101579.66
2023-04-02T23:42:54.333Z,101583.47
2023-04-02T23:47:55.700Z,101571.88
2023-04-02T23:52:56.949Z,101574.88
2023-04-02T23:57:58.087Z,101587.84
